sensor_id;sensor_type;location;lat;lon;timestamp;temperature;humidity
11848;DHT22;5983;49.966;8.052;2022-09-30T03:55:24;4.60;99.90
11848;DHT22;5983;49.966;8.052;2022-09-30T03:58:09;4.50;99.90
11848;DHT22;5983;49.966;8.052;2022-09-30T04:00:36;4.50;99.90
11848;DHT22;5983;49.966;8.052;2022-09-30T04:03:04;4.50;99.90
11848;DHT22;5983;49.966;8.052;2022-09-30T04:05:31;4.50;99.90
11848;DHT22;5983;49.966;8.052;2022-09-30T04:07:58;4.50;99.90
11848;DHT22;5983;49.966;8.052;2022-09-30T04:10:26;4.50;99.90
11848;DHT22;5983;49.966;8.052;2022-09-30T04:12:53;4.60;99.90
11848;DHT22;5983;49.966;8.052;2022-09-30T04:15:20;4.50;99.90
11848;DHT22;5983;49.966;8.052;2022-09-30T04:17:46;4.50;99.90
11848;DHT22;5983;49.966;8.052;2022-09-30T04:20:13;4.50;99.90
11848;DHT22;5983;49.966;8.052;2022-09-30T04:22:41;4.50;99.90
11848;DHT22;5983;49.966;8.052;2022-09-30T04:25:08;4.50;99.90
11848;DHT22;5983;49.966;8.052;2022-09-30T04:27:37;4.50;99.90
11848;DHT22;5983;49.966;8.052;2022-09-30T04:30:04;4.50;99.90
11848;DHT22;5983;49.966;8.052;2022-09-30T04:32:32;4.50;99.90
11848;DHT22;5983;49.966;8.052;2022-09-30T04:34:59;4.50;99.90
11848;DHT22;5983;49.966;8.052;2022-09-30T04:37:26;4.50;99.90
11848;DHT22;5983;49.966;8.052;2022-09-30T04:39:53;4.50;99.90
11848;DHT22;5983;49.966;8.052;2022-09-30T04:42:19;4.50;99.90
11848;DHT22;5983;49.966;8.052;2022-09-30T04:44:48;4.50;99.90
11848;DHT22;5983;49.966;8.052;2022-09-30T04:47:14;4.40;99.90
11848;DHT22;5983;49.966;8.052;2022-09-30T04:49:41;4.40;99.90
11848;DHT22;5983;49.966;8.052;2022-09-30T04:52:08;4.40;99.90
11848;DHT22;5983;49.966;8.052;2022-09-30T04:54:35;4.40;99.90
11848;DHT22;5983;49.966;8.052;2022-09-30T04:57:04;4.40;99.90
11848;DHT22;5983;49.966;8.052;2022-09-30T04:59:31;4.40;99.90
11848;DHT22;5983;49.966;8.052;2022-09-30T05:02:00;4.40;99.90
11848;DHT22;5983;49.966;8.052;2022-09-30T05:04:27;4.30;99.90
11848;DHT22;5983;49.966;8.052;2022-09-30T05:06:57;4.30;99.90
11848;DHT22;5983;49.966;8.052;2022-09-30T05:09:24;4.30;99.90
11848;DHT22;5983;49.966;8.052;2022-09-30T05:11:51;4.30;99.90
11848;DHT22;5983;49.966;8.052;2022-09-30T05:14:18;4.30;99.90
11848;DHT22;5983;49.966;8.052;2022-09-30T05:16:47;4.30;99.90
11848;DHT22;5983;49.966;8.052;2022-09-30T05:19:15;4.30;99.90
11848;DHT22;5983;49.966;8.052;2022-09-30T05:21:42;4.30;99.90
11848;DHT22;5983;49.966;8.052;2022-09-30T05:24:09;4.30;99.90
11848;DHT22;5983;49.966;8.052;2022-09-30T05:26:36;4.20;99.90
11848;DHT22;5983;49.966;8.052;2022-09-30T05:29:04;4.30;99.90
11848;DHT22;5983;49.966;8.052;2022-09-30T05:31:32;4.20;99.90
11848;DHT22;5983;49.966;8.052;2022-09-30T05:33:59;4.20;99.90
11848;DHT22;5983;49.966;8.052;2022-09-30T05:36:27;4.20;99.90
11848;DHT22;5983;49.966;8.052;2022-09-30T05:38:54;4.20;99.90
11848;DHT22;5983;49.966;8.052;2022-09-30T05:41:21;4.20;99.90
11848;DHT22;5983;49.966;8.052;2022-09-30T05:43:49;4.10;99.90
11848;DHT22;5983;49.966;8.052;2022-09-30T05:46:17;4.20;99.90
11848;DHT22;5983;49.966;8.052;2022-09-30T05:48:45;4.20;99.90
11848;DHT22;5983;49.966;8.052;2022-09-30T05:51:12;4.20;99.90
11848;DHT22;5983;49.966;8.052;2022-09-30T05:53:41;4.20;99.90
11848;DHT22;5983;49.966;8.052;2022-09-30T05:56:09;4.30;99.90
11848;DHT22;5983;49.966;8.052;2022-09-30T05:58:36;4.40;99.90
11848;DHT22;5983;49.966;8.052;2022-09-30T06:01:07;4.50;99.90
11848;DHT22;5983;49.966;8.052;2022-09-30T06:03:35;4.80;99.90
11848;DHT22;5983;49.966;8.052;2022-09-30T06:06:03;5.20;99.90
11848;DHT22;5983;49.966;8.052;2022-09-30T06:08:30;5.80;99.90
11848;DHT22;5983;49.966;8.052;2022-09-30T06:10:59;6.40;99.90
11848;DHT22;5983;49.966;8.052;2022-09-30T06:13:26;7.10;99.90
11848;DHT22;5983;49.966;8.052;2022-09-30T06:15:55;7.70;99.90
11848;DHT22;5983;49.966;8.052;2022-09-30T06:18:22;8.30;99.90
11848;DHT22;5983;49.966;8.052;2022-09-30T06:20:51;8.90;99.90
11848;DHT22;5983;49.966;8.052;2022-09-30T06:23:24;9.60;99.90
11848;DHT22;5983;49.966;8.052;2022-09-30T06:25:53;10.30;99.90
11848;DHT22;5983;49.966;8.052;2022-09-30T06:28:24;10.90;99.90
11848;DHT22;5983;49.966;8.052;2022-09-30T06:30:53;11.50;99.90
11848;DHT22;5983;49.966;8.052;2022-09-30T06:33:21;11.80;99.90
11848;DHT22;5983;49.966;8.052;2022-09-30T06:35:52;12.20;99.90
11848;DHT22;5983;49.966;8.052;2022-09-30T06:38:20;12.60;99.90
11848;DHT22;5983;49.966;8.052;2022-09-30T06:40:48;13.20;99.90
11848;DHT22;5983;49.966;8.052;2022-09-30T06:43:15;13.80;99.90
11848;DHT22;5983;49.966;8.052;2022-09-30T06:45:46;14.40;99.90
11848;DHT22;5983;49.966;8.052;2022-09-30T06:48:16;14.90;99.90
11848;DHT22;5983;49.966;8.052;2022-09-30T06:50:44;15.30;99.90
11848;DHT22;5983;49.966;8.052;2022-09-30T06:53:11;15.70;99.90
11848;DHT22;5983;49.966;8.052;2022-09-30T06:55:39;16.20;99.90
11848;DHT22;5983;49.966;8.052;2022-09-30T06:58:12;16.80;99.90
11848;DHT22;5983;49.966;8.052;2022-09-30T07:00:40;17.40;99.90
11848;DHT22;5983;49.966;8.052;2022-09-30T07:03:24;18.00;99.60
11848;DHT22;5983;49.966;8.052;2022-09-30T07:05:57;18.60;98.10
11848;DHT22;5983;49.966;8.052;2022-09-30T07:08:29;19.20;96.50
11848;DHT22;5983;49.966;8.052;2022-09-30T07:10:58;19.70;94.90
11848;DHT22;5983;49.966;8.052;2022-09-30T07:13:26;20.20;93.40
11848;DHT22;5983;49.966;8.052;2022-09-30T07:15:53;20.70;91.60
11848;DHT22;5983;49.966;8.052;2022-09-30T07:18:23;21.20;90.10
11848;DHT22;5983;49.966;8.052;2022-09-30T07:20:54;21.70;87.90
11848;DHT22;5983;49.966;8.052;2022-09-30T07:23:24;22.20;84.70
11848;DHT22;5983;49.966;8.052;2022-09-30T07:25:52;22.60;81.90
11848;DHT22;5983;49.966;8.052;2022-09-30T07:28:21;22.90;80.00
11848;DHT22;5983;49.966;8.052;2022-09-30T07:30:52;23.30;78.10
11848;DHT22;5983;49.966;8.052;2022-09-30T07:33:22;23.70;75.70
11848;DHT22;5983;49.966;8.052;2022-09-30T07:35:50;24.00;73.90
11848;DHT22;5983;49.966;8.052;2022-09-30T07:38:19;24.30;71.80
11848;DHT22;5983;49.966;8.052;2022-09-30T07:40:54;24.60;70.60
11848;DHT22;5983;49.966;8.052;2022-09-30T07:43:23;25.10;68.90
11848;DHT22;5983;49.966;8.052;2022-09-30T07:46:02;25.50;66.60
11848;DHT22;5983;49.966;8.052;2022-09-30T07:48:32;26.10;65.00
11848;DHT22;5983;49.966;8.052;2022-09-30T07:51:10;26.50;61.80
11848;DHT22;5983;49.966;8.052;2022-09-30T07:53:40;26.90;59.70
11848;DHT22;5983;49.966;8.052;2022-09-30T07:56:09;27.30;58.30
11848;DHT22;5983;49.966;8.052;2022-09-30T07:58:37;27.70;56.80
11848;DHT22;5983;49.966;8.052;2022-09-30T08:01:06;28.00;56.00
11848;DHT22;5983;49.966;8.052;2022-09-30T08:03:36;28.30;54.00
11848;DHT22;5983;49.966;8.052;2022-09-30T08:06:08;28.60;53.40
11848;DHT22;5983;49.966;8.052;2022-09-30T08:08:40;28.90;52.10
11848;DHT22;5983;49.966;8.052;2022-09-30T08:11:08;29.00;51.50
11848;DHT22;5983;49.966;8.052;2022-09-30T08:13:39;29.30;50.80
11848;DHT22;5983;49.966;8.052;2022-09-30T08:16:13;29.60;50.20
11848;DHT22;5983;49.966;8.052;2022-09-30T08:18:43;30.00;49.10
11848;DHT22;5983;49.966;8.052;2022-09-30T08:21:12;30.20;48.30
11848;DHT22;5983;49.966;8.052;2022-09-30T08:23:39;30.50;47.70
11848;DHT22;5983;49.966;8.052;2022-09-30T08:26:08;30.70;46.20
11848;DHT22;5983;49.966;8.052;2022-09-30T08:28:38;31.00;45.20
11848;DHT22;5983;49.966;8.052;2022-09-30T08:31:06;31.30;45.30
11848;DHT22;5983;49.966;8.052;2022-09-30T08:33:36;31.50;44.50
11848;DHT22;5983;49.966;8.052;2022-09-30T08:36:09;31.60;44.20
11848;DHT22;5983;49.966;8.052;2022-09-30T08:38:40;31.90;44.30
11848;DHT22;5983;49.966;8.052;2022-09-30T08:41:16;32.20;43.10
11848;DHT22;5983;49.966;8.052;2022-09-30T08:44:00;32.40;42.00
11848;DHT22;5983;49.966;8.052;2022-09-30T08:46:42;32.20;41.40
11848;DHT22;5983;49.966;8.052;2022-09-30T08:49:32;32.20;41.80
11848;DHT22;5983;49.966;8.052;2022-09-30T08:52:15;32.30;41.20
11848;DHT22;5983;49.966;8.052;2022-09-30T08:54:49;32.40;42.20
11848;DHT22;5983;49.966;8.052;2022-09-30T08:57:19;32.10;42.00
11848;DHT22;5983;49.966;8.052;2022-09-30T08:59:51;31.90;42.30
11848;DHT22;5983;49.966;8.052;2022-09-30T09:02:30;32.30;41.80
11848;DHT22;5983;49.966;8.052;2022-09-30T09:05:01;32.70;42.10
11848;DHT22;5983;49.966;8.052;2022-09-30T09:07:41;33.10;41.80
11848;DHT22;5983;49.966;8.052;2022-09-30T09:10:25;33.40;41.30
11848;DHT22;5983;49.966;8.052;2022-09-30T09:13:08;33.70;41.00
11848;DHT22;5983;49.966;8.052;2022-09-30T09:15:58;34.00;40.50
11848;DHT22;5983;49.966;8.052;2022-09-30T09:18:49;34.50;40.30
11848;DHT22;5983;49.966;8.052;2022-09-30T09:21:29;34.70;39.50
11848;DHT22;5983;49.966;8.052;2022-09-30T09:24:13;34.80;38.70
11848;DHT22;5983;49.966;8.052;2022-09-30T09:26:43;35.00;38.50
11848;DHT22;5983;49.966;8.052;2022-09-30T09:29:21;35.10;38.20
11848;DHT22;5983;49.966;8.052;2022-09-30T09:31:53;35.40;38.40
11848;DHT22;5983;49.966;8.052;2022-09-30T09:34:24;35.60;37.20
11848;DHT22;5983;49.966;8.052;2022-09-30T09:37:02;35.90;37.00
11848;DHT22;5983;49.966;8.052;2022-09-30T09:39:52;36.20;36.40
11848;DHT22;5983;49.966;8.052;2022-09-30T09:42:43;36.50;36.90
11848;DHT22;5983;49.966;8.052;2022-09-30T09:45:34;36.60;35.60
11848;DHT22;5983;49.966;8.052;2022-09-30T09:48:07;36.80;36.60
11848;DHT22;5983;49.966;8.052;2022-09-30T09:50:45;37.10;36.90
11848;DHT22;5983;49.966;8.052;2022-09-30T09:56:17;37.60;34.80
11848;DHT22;5983;49.966;8.052;2022-09-30T09:59:05;37.80;34.50
11848;DHT22;5983;49.966;8.052;2022-09-30T10:01:37;37.80;33.90
11848;DHT22;5983;49.966;8.052;2022-09-30T10:04:15;37.90;33.80
11848;DHT22;5983;49.966;8.052;2022-09-30T10:06:51;38.00;34.20
11848;DHT22;5983;49.966;8.052;2022-09-30T10:09:28;38.40;33.70
11848;DHT22;5983;49.966;8.052;2022-09-30T10:12:30;38.50;32.50
11848;DHT22;5983;49.966;8.052;2022-09-30T10:15:14;38.60;32.90
11848;DHT22;5983;49.966;8.052;2022-09-30T10:17:53;38.10;32.20
11848;DHT22;5983;49.966;8.052;2022-09-30T10:20:28;38.30;32.00
11848;DHT22;5983;49.966;8.052;2022-09-30T10:23:08;38.20;31.10
11848;DHT22;5983;49.966;8.052;2022-09-30T10:25:54;37.70;31.60
11848;DHT22;5983;49.966;8.052;2022-09-30T10:28:29;37.90;32.20
11848;DHT22;5983;49.966;8.052;2022-09-30T10:31:16;38.50;31.90
11848;DHT22;5983;49.966;8.052;2022-09-30T10:33:58;38.90;31.00
11848;DHT22;5983;49.966;8.052;2022-09-30T10:36:36;39.00;31.60
11848;DHT22;5983;49.966;8.052;2022-09-30T10:39:08;39.40;31.10
11848;DHT22;5983;49.966;8.052;2022-09-30T10:41:48;39.20;30.90
11848;DHT22;5983;49.966;8.052;2022-09-30T10:44:20;38.60;30.70
11848;DHT22;5983;49.966;8.052;2022-09-30T10:46:51;38.50;30.90
11848;DHT22;5983;49.966;8.052;2022-09-30T10:49:25;38.40;30.30
11848;DHT22;5983;49.966;8.052;2022-09-30T10:51:54;38.80;30.40
11848;DHT22;5983;49.966;8.052;2022-09-30T10:54:48;38.90;29.40
11848;DHT22;5983;49.966;8.052;2022-09-30T10:57:22;39.00;29.40
11848;DHT22;5983;49.966;8.052;2022-09-30T10:59:55;38.90;29.00
11848;DHT22;5983;49.966;8.052;2022-09-30T11:02:29;39.00;28.50
11848;DHT22;5983;49.966;8.052;2022-09-30T11:05:11;38.70;28.00
11848;DHT22;5983;49.966;8.052;2022-09-30T11:07:48;38.50;27.90
11848;DHT22;5983;49.966;8.052;2022-09-30T11:10:32;38.30;28.30
11848;DHT22;5983;49.966;8.052;2022-09-30T11:13:09;38.30;28.50
11848;DHT22;5983;49.966;8.052;2022-09-30T11:15:56;38.00;28.80
11848;DHT22;5983;49.966;8.052;2022-09-30T11:18:37;38.10;29.20
11848;DHT22;5983;49.966;8.052;2022-09-30T11:21:16;38.50;28.90
11848;DHT22;5983;49.966;8.052;2022-09-30T11:23:50;38.80;28.70
11848;DHT22;5983;49.966;8.052;2022-09-30T11:26:30;38.00;29.40
11848;DHT22;5983;49.966;8.052;2022-09-30T11:29:17;36.10;31.70
11848;DHT22;5983;49.966;8.052;2022-09-30T11:32:04;33.20;33.70
11848;DHT22;5983;49.966;8.052;2022-09-30T11:34:48;30.70;36.70
11848;DHT22;5983;49.966;8.052;2022-09-30T11:37:32;28.70;39.90
11848;DHT22;5983;49.966;8.052;2022-09-30T11:40:27;26.90;44.10
11848;DHT22;5983;49.966;8.052;2022-09-30T11:43:11;25.40;48.40
11848;DHT22;5983;49.966;8.052;2022-09-30T11:49:18;24.30;51.60
11848;DHT22;5983;49.966;8.052;2022-09-30T11:52:17;27.10;48.00
11848;DHT22;5983;49.966;8.052;2022-09-30T11:55:05;28.90;44.30
11848;DHT22;5983;49.966;8.052;2022-09-30T11:57:50;30.50;42.20
11848;DHT22;5983;49.966;8.052;2022-09-30T12:00:25;32.40;40.10
11848;DHT22;5983;49.966;8.052;2022-09-30T12:02:59;33.40;38.20
11848;DHT22;5983;49.966;8.052;2022-09-30T12:05:38;33.20;36.80
11848;DHT22;5983;49.966;8.052;2022-09-30T12:08:14;31.90;38.40
11848;DHT22;5983;49.966;8.052;2022-09-30T12:10:55;31.50;40.50
11848;DHT22;5983;49.966;8.052;2022-09-30T12:13:28;31.60;40.00
11848;DHT22;5983;49.966;8.052;2022-09-30T12:16:02;31.20;40.10
11848;DHT22;5983;49.966;8.052;2022-09-30T12:18:38;31.90;38.90
11848;DHT22;5983;49.966;8.052;2022-09-30T12:21:19;33.10;36.80
11848;DHT22;5983;49.966;8.052;2022-09-30T12:23:59;34.20;35.20
11848;DHT22;5983;49.966;8.052;2022-09-30T12:26:30;35.30;33.90
11848;DHT22;5983;49.966;8.052;2022-09-30T12:29:05;35.60;31.60
11848;DHT22;5983;49.966;8.052;2022-09-30T12:32:14;35.30;31.70
11848;DHT22;5983;49.966;8.052;2022-09-30T12:35:08;34.40;31.50
11848;DHT22;5983;49.966;8.052;2022-09-30T12:38:09;33.00;33.10
11848;DHT22;5983;49.966;8.052;2022-09-30T12:41:07;32.70;34.40
11848;DHT22;5983;49.966;8.052;2022-09-30T12:47:29;33.50;32.90
11848;DHT22;5983;49.966;8.052;2022-09-30T12:50:05;34.10;32.70
11848;DHT22;5983;49.966;8.052;2022-09-30T12:52:36;34.30;32.40
11848;DHT22;5983;49.966;8.052;2022-09-30T12:55:08;34.40;33.00
11848;DHT22;5983;49.966;8.052;2022-09-30T12:57:50;34.30;32.50
11848;DHT22;5983;49.966;8.052;2022-09-30T13:00:20;34.30;33.40
11848;DHT22;5983;49.966;8.052;2022-09-30T13:02:57;34.30;32.80
11848;DHT22;5983;49.966;8.052;2022-09-30T13:05:55;33.40;32.90
11848;DHT22;5983;49.966;8.052;2022-09-30T13:09:05;32.70;33.50
11848;DHT22;5983;49.966;8.052;2022-09-30T13:15:21;31.10;34.80
11848;DHT22;5983;49.966;8.052;2022-09-30T13:21:29;27.40;41.80
11848;DHT22;5983;49.966;8.052;2022-09-30T13:24:08;26.00;44.30
11848;DHT22;5983;49.966;8.052;2022-09-30T13:26:38;25.00;46.50
11848;DHT22;5983;49.966;8.052;2022-09-30T13:29:33;24.40;49.30
11848;DHT22;5983;49.966;8.052;2022-09-30T13:32:06;24.20;49.30
11848;DHT22;5983;49.966;8.052;2022-09-30T13:34:52;24.40;49.50
11848;DHT22;5983;49.966;8.052;2022-09-30T13:37:37;24.90;47.90
11848;DHT22;5983;49.966;8.052;2022-09-30T13:40:36;24.90;45.80
11848;DHT22;5983;49.966;8.052;2022-09-30T13:43:15;24.80;45.30
11848;DHT22;5983;49.966;8.052;2022-09-30T13:45:49;25.00;45.10
11848;DHT22;5983;49.966;8.052;2022-09-30T13:48:22;25.50;44.70
11848;DHT22;5983;49.966;8.052;2022-09-30T13:50:56;25.70;45.00
11848;DHT22;5983;49.966;8.052;2022-09-30T13:53:29;25.50;45.30
11848;DHT22;5983;49.966;8.052;2022-09-30T13:56:06;25.40;43.90
11848;DHT22;5983;49.966;8.052;2022-09-30T13:59:08;25.50;45.20
11848;DHT22;5983;49.966;8.052;2022-09-30T14:08:40;23.90;46.90
11848;DHT22;5983;49.966;8.052;2022-09-30T14:11:43;23.00;48.30
11848;DHT22;5983;49.966;8.052;2022-09-30T14:14:52;22.70;50.40
11848;DHT22;5983;49.966;8.052;2022-09-30T14:17:52;22.70;50.30
11848;DHT22;5983;49.966;8.052;2022-09-30T14:20:41;22.60;49.80
11848;DHT22;5983;49.966;8.052;2022-09-30T14:23:21;22.30;50.00
11848;DHT22;5983;49.966;8.052;2022-09-30T14:25:54;21.80;50.20
11848;DHT22;5983;49.966;8.052;2022-09-30T14:28:34;21.40;50.50
11848;DHT22;5983;49.966;8.052;2022-09-30T14:31:14;21.00;51.70
11848;DHT22;5983;49.966;8.052;2022-09-30T14:33:43;20.80;52.70
11848;DHT22;5983;49.966;8.052;2022-09-30T14:36:20;20.60;52.50
11848;DHT22;5983;49.966;8.052;2022-09-30T14:38:51;20.40;52.90
11848;DHT22;5983;49.966;8.052;2022-09-30T14:41:23;20.10;53.40
11848;DHT22;5983;49.966;8.052;2022-09-30T14:43:53;19.90;53.70
11848;DHT22;5983;49.966;8.052;2022-09-30T14:46:33;19.80;54.10
11848;DHT22;5983;49.966;8.052;2022-09-30T14:49:04;19.60;53.90
11848;DHT22;5983;49.966;8.052;2022-09-30T14:51:41;19.50;53.90
11848;DHT22;5983;49.966;8.052;2022-09-30T14:54:17;19.40;54.30
11848;DHT22;5983;49.966;8.052;2022-09-30T14:56:46;19.20;54.60
11848;DHT22;5983;49.966;8.052;2022-09-30T14:59:19;19.10;55.20
11848;DHT22;5983;49.966;8.052;2022-09-30T15:01:49;19.10;56.10
11848;DHT22;5983;49.966;8.052;2022-09-30T15:04:24;19.00;56.40
11848;DHT22;5983;49.966;8.052;2022-09-30T15:06:54;18.90;56.50
11848;DHT22;5983;49.966;8.052;2022-09-30T15:09:30;18.80;56.20
11848;DHT22;5983;49.966;8.052;2022-09-30T15:12:03;18.60;56.40
11848;DHT22;5983;49.966;8.052;2022-09-30T15:14:32;18.50;56.40
11848;DHT22;5983;49.966;8.052;2022-09-30T15:16:59;18.40;57.20
11848;DHT22;5983;49.966;8.052;2022-09-30T15:19:27;18.30;58.00
11848;DHT22;5983;49.966;8.052;2022-09-30T15:22:02;18.20;58.10
11848;DHT22;5983;49.966;8.052;2022-09-30T15:24:37;18.20;58.60
11848;DHT22;5983;49.966;8.052;2022-09-30T15:27:13;18.10;58.40
11848;DHT22;5983;49.966;8.052;2022-09-30T15:29:54;18.10;58.60
11848;DHT22;5983;49.966;8.052;2022-09-30T15:32:24;18.10;58.70
11848;DHT22;5983;49.966;8.052;2022-09-30T15:34:53;18.00;57.90
11848;DHT22;5983;49.966;8.052;2022-09-30T15:37:25;17.90;57.60
11848;DHT22;5983;49.966;8.052;2022-09-30T15:39:58;17.80;57.90
11848;DHT22;5983;49.966;8.052;2022-09-30T15:42:51;17.70;58.10
11848;DHT22;5983;49.966;8.052;2022-09-30T15:45:28;17.60;58.20
11848;DHT22;5983;49.966;8.052;2022-09-30T15:47:59;17.50;58.50
11848;DHT22;5983;49.966;8.052;2022-09-30T15:50:38;17.40;59.80
11848;DHT22;5983;49.966;8.052;2022-09-30T15:53:16;17.30;60.20
11848;DHT22;5983;49.966;8.052;2022-09-30T15:55:45;17.20;61.70
11848;DHT22;5983;49.966;8.052;2022-09-30T15:58:34;17.20;61.80
11848;DHT22;5983;49.966;8.052;2022-09-30T16:01:14;17.10;62.90
11848;DHT22;5983;49.966;8.052;2022-09-30T16:03:49;17.00;63.80
11848;DHT22;5983;49.966;8.052;2022-09-30T16:06:27;16.90;62.90
11848;DHT22;5983;49.966;8.052;2022-09-30T16:08:59;16.70;62.70
11848;DHT22;5983;49.966;8.052;2022-09-30T16:11:33;16.60;63.30
11848;DHT22;5983;49.966;8.052;2022-09-30T16:14:10;16.60;63.40
11848;DHT22;5983;49.966;8.052;2022-09-30T16:16:55;16.60;63.60
11848;DHT22;5983;49.966;8.052;2022-09-30T16:19:30;16.50;63.80
11848;DHT22;5983;49.966;8.052;2022-09-30T16:22:02;16.50;64.00
11848;DHT22;5983;49.966;8.052;2022-09-30T16:24:47;16.40;64.70
11848;DHT22;5983;49.966;8.052;2022-09-30T16:27:33;16.40;65.40
11848;DHT22;5983;49.966;8.052;2022-09-30T16:30:04;16.30;65.30
11848;DHT22;5983;49.966;8.052;2022-09-30T16:32:36;16.20;65.50
11848;DHT22;5983;49.966;8.052;2022-09-30T16:35:12;16.20;67.50
11848;DHT22;5983;49.966;8.052;2022-09-30T16:37:42;16.10;70.80
11848;DHT22;5983;49.966;8.052;2022-09-30T16:40:25;16.00;71.80
11848;DHT22;5983;49.966;8.052;2022-09-30T16:42:53;15.80;74.00
11848;DHT22;5983;49.966;8.052;2022-09-30T16:45:21;15.70;77.00
11848;DHT22;5983;49.966;8.052;2022-09-30T16:47:48;15.50;80.20
11848;DHT22;5983;49.966;8.052;2022-09-30T16:50:24;15.40;84.60
11848;DHT22;5983;49.966;8.052;2022-09-30T16:52:58;15.20;88.70
11848;DHT22;5983;49.966;8.052;2022-09-30T16:55:29;15.10;92.10
11848;DHT22;5983;49.966;8.052;2022-09-30T16:58:00;14.90;94.70
11848;DHT22;5983;49.966;8.052;2022-09-30T17:00:29;14.80;96.30
11848;DHT22;5983;49.966;8.052;2022-09-30T17:02:57;14.70;98.30
11848;DHT22;5983;49.966;8.052;2022-09-30T17:05:25;14.50;99.50
11848;DHT22;5983;49.966;8.052;2022-09-30T17:07:56;14.40;99.90
11848;DHT22;5983;49.966;8.052;2022-09-30T17:10:29;14.30;99.90
11848;DHT22;5983;49.966;8.052;2022-09-30T17:13:00;14.20;99.90
11848;DHT22;5983;49.966;8.052;2022-09-30T17:15:29;14.10;99.90
11848;DHT22;5983;49.966;8.052;2022-09-30T17:18:03;14.10;99.90
11848;DHT22;5983;49.966;8.052;2022-09-30T17:20:36;14.00;99.90
11848;DHT22;5983;49.966;8.052;2022-09-30T17:23:05;13.90;99.90
11848;DHT22;5983;49.966;8.052;2022-09-30T17:25:33;13.80;99.90
11848;DHT22;5983;49.966;8.052;2022-09-30T17:28:05;13.70;99.90
11848;DHT22;5983;49.966;8.052;2022-09-30T17:30:32;13.60;99.90
11848;DHT22;5983;49.966;8.052;2022-09-30T17:33:00;13.50;99.90
11848;DHT22;5983;49.966;8.052;2022-09-30T17:35:32;13.30;99.90
11848;DHT22;5983;49.966;8.052;2022-09-30T17:38:18;13.20;99.90
11848;DHT22;5983;49.966;8.052;2022-09-30T17:40:47;13.20;99.90
11848;DHT22;5983;49.966;8.052;2022-09-30T17:43:33;13.00;99.90
11848;DHT22;5983;49.966;8.052;2022-09-30T17:46:00;12.90;99.90
11848;DHT22;5983;49.966;8.052;2022-09-30T17:48:34;12.90;99.90
11848;DHT22;5983;49.966;8.052;2022-09-30T17:51:02;12.80;99.90
11848;DHT22;5983;49.966;8.052;2022-09-30T17:53:33;12.70;99.90
11848;DHT22;5983;49.966;8.052;2022-09-30T17:56:10;12.60;99.90
11848;DHT22;5983;49.966;8.052;2022-09-30T17:58:41;12.50;99.90
11848;DHT22;5983;49.966;8.052;2022-09-30T18:01:09;12.30;99.90
11848;DHT22;5983;49.966;8.052;2022-09-30T18:03:36;12.20;99.90
11848;DHT22;5983;49.966;8.052;2022-09-30T18:09:31;12.00;99.90
11848;DHT22;5983;49.966;8.052;2022-09-30T18:12:10;12.00;99.90
11848;DHT22;5983;49.966;8.052;2022-09-30T18:14:40;12.00;99.90
11848;DHT22;5983;49.966;8.052;2022-09-30T18:17:13;11.90;99.90
11848;DHT22;5983;49.966;8.052;2022-09-30T18:19:40;11.90;99.90
11848;DHT22;5983;49.966;8.052;2022-09-30T18:22:32;11.80;99.90
11848;DHT22;5983;49.966;8.052;2022-09-30T18:24:59;11.70;99.90
11848;DHT22;5983;49.966;8.052;2022-09-30T18:27:48;11.70;99.90
11848;DHT22;5983;49.966;8.052;2022-09-30T18:30:19;11.60;99.90
11848;DHT22;5983;49.966;8.052;2022-09-30T18:33:17;11.60;99.90
11848;DHT22;5983;49.966;8.052;2022-09-30T18:36:34;11.60;99.90
11848;DHT22;5983;49.966;8.052;2022-09-30T18:39:07;11.60;99.90
11848;DHT22;5983;49.966;8.052;2022-09-30T18:41:35;11.60;99.90
11848;DHT22;5983;49.966;8.052;2022-09-30T18:44:09;11.60;99.90
11848;DHT22;5983;49.966;8.052;2022-09-30T18:46:38;11.60;99.90
11848;DHT22;5983;49.966;8.052;2022-09-30T18:49:08;11.60;99.90
11848;DHT22;5983;49.966;8.052;2022-09-30T18:51:38;11.50;99.90
11848;DHT22;5983;49.966;8.052;2022-09-30T18:54:11;11.40;99.90
11848;DHT22;5983;49.966;8.052;2022-09-30T19:00:15;11.20;99.90
11848;DHT22;5983;49.966;8.052;2022-09-30T19:02:53;11.10;99.90
11848;DHT22;5983;49.966;8.052;2022-09-30T19:05:25;11.00;99.90
11848;DHT22;5983;49.966;8.052;2022-09-30T19:07:53;10.90;99.90
11848;DHT22;5983;49.966;8.052;2022-09-30T19:10:21;10.90;99.90
11848;DHT22;5983;49.966;8.052;2022-09-30T19:12:51;10.80;99.90
11848;DHT22;5983;49.966;8.052;2022-09-30T19:15:25;10.80;99.90
11848;DHT22;5983;49.966;8.052;2022-09-30T19:17:52;10.80;99.90
11848;DHT22;5983;49.966;8.052;2022-09-30T19:20:20;10.70;99.90
11848;DHT22;5983;49.966;8.052;2022-09-30T19:22:47;10.70;99.90
11848;DHT22;5983;49.966;8.052;2022-09-30T19:25:18;10.60;99.90
11848;DHT22;5983;49.966;8.052;2022-09-30T19:27:54;10.60;99.90
11848;DHT22;5983;49.966;8.052;2022-09-30T19:30:28;10.50;99.90
11848;DHT22;5983;49.966;8.052;2022-09-30T19:32:56;10.40;99.90
11848;DHT22;5983;49.966;8.052;2022-09-30T19:35:33;10.30;99.90
11848;DHT22;5983;49.966;8.052;2022-09-30T19:38:03;10.30;99.90
11848;DHT22;5983;49.966;8.052;2022-09-30T19:40:38;10.20;99.90
11848;DHT22;5983;49.966;8.052;2022-09-30T19:43:06;10.20;99.90
11848;DHT22;5983;49.966;8.052;2022-09-30T19:45:38;10.10;99.90
11848;DHT22;5983;49.966;8.052;2022-09-30T19:48:07;10.10;99.90
11848;DHT22;5983;49.966;8.052;2022-09-30T19:50:40;10.10;99.90
11848;DHT22;5983;49.966;8.052;2022-09-30T19:53:09;10.10;99.90
11848;DHT22;5983;49.966;8.052;2022-09-30T19:55:36;10.00;99.90
11848;DHT22;5983;49.966;8.052;2022-09-30T19:58:14;10.00;99.90
11848;DHT22;5983;49.966;8.052;2022-09-30T20:00:56;9.90;99.90
11848;DHT22;5983;49.966;8.052;2022-09-30T20:03:29;9.90;99.90
11848;DHT22;5983;49.966;8.052;2022-09-30T20:05:59;9.80;99.90
11848;DHT22;5983;49.966;8.052;2022-09-30T20:08:34;9.80;99.90
11848;DHT22;5983;49.966;8.052;2022-09-30T20:11:03;9.80;99.90
11848;DHT22;5983;49.966;8.052;2022-09-30T20:13:33;9.80;99.90
11848;DHT22;5983;49.966;8.052;2022-09-30T20:16:04;9.70;99.90
11848;DHT22;5983;49.966;8.052;2022-09-30T20:18:32;9.60;99.90
11848;DHT22;5983;49.966;8.052;2022-09-30T20:21:00;9.60;99.90
11848;DHT22;5983;49.966;8.052;2022-09-30T20:23:33;9.60;99.90
11848;DHT22;5983;49.966;8.052;2022-09-30T20:26:03;9.60;99.90
11848;DHT22;5983;49.966;8.052;2022-09-30T20:28:31;9.60;99.90
11848;DHT22;5983;49.966;8.052;2022-09-30T20:31:03;9.60;99.90
11848;DHT22;5983;49.966;8.052;2022-09-30T20:33:32;9.50;99.90
11848;DHT22;5983;49.966;8.052;2022-09-30T20:36:02;9.50;99.90
11848;DHT22;5983;49.966;8.052;2022-09-30T20:38:30;9.50;99.90
11848;DHT22;5983;49.966;8.052;2022-09-30T20:41:01;9.40;99.90
11848;DHT22;5983;49.966;8.052;2022-09-30T20:43:30;9.40;99.90
11848;DHT22;5983;49.966;8.052;2022-09-30T20:46:00;9.30;99.90
11848;DHT22;5983;49.966;8.052;2022-09-30T20:48:33;9.20;99.90
11848;DHT22;5983;49.966;8.052;2022-09-30T20:51:03;9.10;99.90
11848;DHT22;5983;49.966;8.052;2022-09-30T20:53:31;9.10;99.90
11848;DHT22;5983;49.966;8.052;2022-09-30T20:55:59;9.00;99.90
11848;DHT22;5983;49.966;8.052;2022-09-30T20:58:26;9.00;99.90
11848;DHT22;5983;49.966;8.052;2022-09-30T21:00:59;9.00;99.90